Time;durP1;ratioP1;P1;durP2;ratioP2;P2;SDS_P1;SDS_P2;PMS_P1;PMS_P2;Temp;Humidity;BMP_temperature;BMP_pressure;BME280_temperature;BME280_humidity;BME280_pressure;Samples;Min_cycle;Max_cycle;Signal;HPM_P1;HPM_P2
2023/07/14 00:00:44;;;;;;;4.50;1.97;;;18.20;99.90;;;;;;5054136;28;20409;-70
2023/07/14 00:03:16;;;;;;;4.67;2.07;;;18.20;99.90;;;;;;5054055;28;20406;-70
2023/07/14 00:05:43;;;;;;;2.20;2.00;;;18.20;99.90;;;;;;5053786;28;20401;-70
2023/07/14 00:08:18;;;;;;;1.97;1.87;;;18.10;99.90;;;;;;5053852;28;20511;-70
2023/07/14 00:10:44;;;;;;;10.37;2.10;;;18.00;99.90;;;;;;5054011;28;20858;-69
2023/07/14 00:13:12;;;;;;;2.93;2.20;;;17.90;99.90;;;;;;5053888;28;20429;-70
2023/07/14 00:15:39;;;;;;;2.40;1.77;;;17.90;99.90;;;;;;5053649;28;20175;-69
2023/07/14 00:18:20;;;;;;;3.93;1.93;;;17.90;99.90;;;;;;5053473;28;20566;-69
2023/07/14 00:20:46;;;;;;;2.37;1.90;;;17.70;99.90;;;;;;5053769;28;20743;-70
2023/07/14 00:23:13;;;;;;;3.67;2.60;;;17.60;99.90;;;;;;5053736;28;20945;-70
2023/07/14 00:25:39;;;;;;;2.53;1.60;;;17.60;99.90;;;;;;5053428;28;20410;-68
2023/07/14 00:28:16;;;;;;;3.30;2.07;;;17.50;99.90;;;;;;5053552;28;20432;-69
2023/07/14 00:30:42;;;;;;;5.87;2.00;;;17.50;99.90;;;;;;5053563;28;20401;-69
2023/07/14 00:33:13;;;;;;;3.70;2.10;;;17.50;99.90;;;;;;5053464;28;20400;-69
2023/07/14 00:35:39;;;;;;;2.53;1.83;;;17.60;99.90;;;;;;5053256;28;20838;-69
2023/07/14 00:38:05;;;;;;;5.27;2.00;;;17.60;99.90;;;;;;5053302;28;20473;-69
2023/07/14 00:40:45;;;;;;;2.53;1.80;;;17.60;99.90;;;;;;5053345;28;20242;-69
2023/07/14 00:43:20;;;;;;;8.37;1.80;;;17.60;99.90;;;;;;5053192;28;20155;-69
2023/07/14 00:45:48;;;;;;;3.93;1.70;;;17.70;99.90;;;;;;5053022;28;20447;-70
2023/07/14 00:48:21;;;;;;;2.20;2.00;;;17.70;99.90;;;;;;5053133;28;20828;-70
2023/07/14 00:50:54;;;;;;;3.20;1.60;;;17.70;99.90;;;;;;5051714;28;20413;-70
2023/07/14 00:53:23;;;;;;;2.27;1.77;;;17.60;99.90;;;;;;5053221;28;20433;-70
2023/07/14 00:56:01;;;;;;;3.00;1.93;;;17.60;99.90;;;;;;5052401;28;20433;-70
2023/07/14 00:58:29;;;;;;;2.43;1.53;;;17.50;99.90;;;;;;5052664;28;20449;-70
2023/07/14 01:01:00;;;;;;;3.93;1.87;;;17.50;99.90;;;;;;5053054;28;20398;-70
2023/07/14 01:03:26;;;;;;;1.50;1.40;;;17.50;99.90;;;;;;5052935;28;20488;-70
2023/07/14 01:05:52;;;;;;;2.87;1.97;;;17.50;99.90;;;;;;5052443;28;20484;-70
2023/07/14 01:08:19;;;;;;;5.73;2.03;;;17.50;99.90;;;;;;5052645;28;20210;-70
2023/07/14 01:10:46;;;;;;;1.50;1.40;;;17.50;99.90;;;;;;5052810;28;20417;-70
2023/07/14 01:13:12;;;;;;;2.30;2.00;;;17.50;99.90;;;;;;5052686;28;20458;-68
2023/07/14 01:15:40;;;;;;;2.03;1.67;;;17.50;99.90;;;;;;5052424;28;20413;-68
2023/07/14 01:18:07;;;;;;;2.43;1.93;;;17.60;99.90;;;;;;5052370;28;20449;-69
2023/07/14 01:20:35;;;;;;;2.37;1.73;;;17.60;99.90;;;;;;5052458;28;20543;-69
2023/07/14 01:23:07;;;;;;;3.80;2.03;;;17.60;99.90;;;;;;5052568;28;20901;-69
2023/07/14 01:25:35;;;;;;;2.03;1.80;;;17.60;99.90;;;;;;5052297;28;20413;-69
2023/07/14 01:28:07;;;;;;;2.20;1.50;;;17.70;99.90;;;;;;5052420;28;20425;-70
2023/07/14 01:30:33;;;;;;;3.60;2.50;;;17.70;99.90;;;;;;5052424;28;20918;-69
2023/07/14 01:32:59;;;;;;;1.80;1.70;;;17.70;99.90;;;;;;5052273;28;20484;-70
2023/07/14 01:35:30;;;;;;;2.23;1.80;;;17.70;99.90;;;;;;5051952;28;20425;-69
2023/07/14 01:37:56;;;;;;;3.40;1.90;;;17.60;99.90;;;;;;5052222;28;20456;-69
2023/07/14 01:40:22;;;;;;;2.97;2.20;;;17.50;99.90;;;;;;5052250;28;20404;-69
2023/07/14 01:43:00;;;;;;;2.60;1.67;;;17.50;99.90;;;;;;5052188;28;20396;-69
2023/07/14 01:45:30;;;;;;;3.30;1.93;;;17.50;99.90;;;;;;5051922;28;20397;-70
2023/07/14 01:47:59;;;;;;;4.97;2.60;;;17.50;99.90;;;;;;5052069;28;20425;-70
2023/07/14 01:50:30;;;;;;;2.07;1.57;;;17.50;99.90;;;;;;5052083;28;20437;-70
2023/07/14 01:53:00;;;;;;;3.00;1.80;;;17.30;99.90;;;;;;5052122;28;20443;-70
2023/07/14 01:55:32;;;;;;;3.27;1.87;;;17.30;99.90;;;;;;5050514;28;20416;-70
2023/07/14 01:57:59;;;;;;;2.80;2.13;;;17.40;99.90;;;;;;5051999;28;21043;-70
2023/07/14 02:00:25;;;;;;;2.27;1.83;;;17.30;99.90;;;;;;5051998;28;20400;-70
2023/07/14 02:02:53;;;;;;;5.10;1.80;;;17.30;99.90;;;;;;5051947;28;20405;-70
2023/07/14 02:05:26;;;;;;;1.63;1.53;;;17.30;99.90;;;;;;5051727;28;20412;-70
2023/07/14 02:07:55;;;;;;;1.80;1.63;;;17.20;99.90;;;;;;5051592;28;20477;-70
2023/07/14 02:10:21;;;;;;;1.70;1.50;;;17.20;99.90;;;;;;5051884;28;20536;-70
2023/07/14 02:12:48;;;;;;;3.20;2.03;;;17.10;99.90;;;;;;5051443;28;20418;-70
2023/07/14 02:15:20;;;;;;;1.73;1.63;;;17.00;99.90;;;;;;5051139;28;20770;-70
2023/07/14 02:17:47;;;;;;;2.53;2.00;;;16.90;99.90;;;;;;5051484;28;20463;-69
2023/07/14 02:20:20;;;;;;;2.63;1.70;;;16.90;99.90;;;;;;5051363;28;20869;-70
2023/07/14 02:22:48;;;;;;;3.90;1.90;;;16.80;99.90;;;;;;5051580;28;20890;-70
2023/07/14 02:25:17;;;;;;;2.40;2.20;;;16.70;99.90;;;;;;5051268;28;20432;-69
2023/07/14 02:27:42;;;;;;;3.43;1.93;;;16.60;99.90;;;;;;5051581;28;20464;-69
2023/07/14 02:30:21;;;;;;;2.07;1.87;;;16.60;99.90;;;;;;5050586;28;20444;-70
2023/07/14 02:32:53;;;;;;;3.23;2.10;;;16.50;99.90;;;;;;5051727;28;20170;-69
2023/07/14 02:35:24;;;;;;;2.30;1.93;;;16.50;99.90;;;;;;5051436;28;20459;-70
2023/07/14 02:38:08;;;;;;;4.73;1.83;;;16.40;99.90;;;;;;5051498;28;20457;-70
2023/07/14 02:40:43;;;;;;;1.90;1.50;;;16.30;99.90;;;;;;5051713;28;20389;-69
2023/07/14 02:43:12;;;;;;;2.10;1.40;;;16.30;99.90;;;;;;5051681;28;20739;-70
2023/07/14 02:45:46;;;;;;;1.70;1.57;;;16.30;99.90;;;;;;5051318;28;20492;-70
2023/07/14 02:48:15;;;;;;;2.67;2.10;;;16.20;99.90;;;;;;5051418;28;20785;-70
2023/07/14 02:50:41;;;;;;;2.77;1.60;;;16.10;99.90;;;;;;5051661;28;20894;-70
2023/07/14 02:53:06;;;;;;;1.80;1.70;;;16.00;99.90;;;;;;5051535;28;20402;-69
2023/07/14 02:55:32;;;;;;;2.07;1.83;;;15.90;99.90;;;;;;5051198;28;20437;-69
2023/07/14 02:57:57;;;;;;;2.10;1.90;;;16.00;99.90;;;;;;5050071;28;20297;-70
2023/07/14 03:00:23;;;;;;;2.03;1.73;;;16.00;99.90;;;;;;5051424;28;20229;-70
2023/07/14 03:02:48;;;;;;;3.53;2.40;;;15.90;99.90;;;;;;5050154;28;20159;-70
2023/07/14 03:05:14;;;;;;;4.40;2.23;;;15.90;99.90;;;;;;5050658;28;20200;-70
2023/07/14 03:07:40;;;;;;;3.60;2.30;;;15.90;99.90;;;;;;5050581;28;20203;-70
2023/07/14 03:10:08;;;;;;;2.80;2.13;;;15.90;99.90;;;;;;5051377;28;20640;-69
2023/07/14 03:12:34;;;;;;;2.10;1.70;;;15.80;99.90;;;;;;5051386;28;20178;-69
2023/07/14 03:14:59;;;;;;;3.83;2.03;;;15.80;99.90;;;;;;5050986;28;20405;-70
2023/07/14 03:17:25;;;;;;;3.30;2.73;;;15.70;99.90;;;;;;5050968;28;20199;-70
2023/07/14 03:19:51;;;;;;;4.53;2.20;;;15.70;99.90;;;;;;5052229;28;20193;-68
2023/07/14 03:22:16;;;;;;;6.40;1.80;;;15.60;99.90;;;;;;5054850;28;20965;-69
2023/07/14 03:24:42;;;;;;;2.50;1.33;;;15.60;99.90;;;;;;5054879;28;20163;-69
2023/07/14 03:27:07;;;;;;;2.70;2.10;;;15.50;99.90;;;;;;5054487;28;20257;-69
2023/07/14 03:29:32;;;;;;;1.80;1.67;;;15.50;99.90;;;;;;5054581;28;20262;-69
2023/07/14 03:31:58;;;;;;;1.90;1.70;;;15.50;99.90;;;;;;5054555;28;20167;-69
2023/07/14 03:34:23;;;;;;;5.57;2.43;;;15.40;99.90;;;;;;5054703;28;20598;-70
2023/07/14 03:36:49;;;;;;;2.13;1.93;;;15.40;99.90;;;;;;5054293;28;20174;-70
2023/07/14 03:39:30;;;;;;;2.43;2.23;;;15.40;99.90;;;;;;5054532;28;20187;-70
2023/07/14 03:41:56;;;;;;;4.70;2.20;;;15.40;99.90;;;;;;5054450;28;20401;-70
2023/07/14 03:44:22;;;;;;;6.53;1.83;;;15.30;99.90;;;;;;5054363;28;20440;-70
2023/07/14 03:46:48;;;;;;;2.73;1.67;;;15.30;99.90;;;;;;5054173;28;20429;-69
2023/07/14 03:49:14;;;;;;;5.80;2.13;;;15.30;99.90;;;;;;5054308;28;20483;-69
2023/07/14 03:51:40;;;;;;;3.60;2.53;;;15.30;99.90;;;;;;5054323;28;20406;-70
2023/07/14 03:54:06;;;;;;;4.13;2.10;;;15.30;99.90;;;;;;5054259;28;20410;-70
2023/07/14 03:56:32;;;;;;;2.80;2.13;;;15.30;99.90;;;;;;5053972;28;20393;-70
2023/07/14 03:58:58;;;;;;;3.37;2.13;;;15.30;99.90;;;;;;5053959;28;20865;-69
2023/07/14 04:01:25;;;;;;;5.70;2.30;;;15.20;99.90;;;;;;5054116;28;20220;-69
2023/07/14 04:03:51;;;;;;;2.60;2.10;;;15.20;99.90;;;;;;5054186;28;20642;-70
2023/07/14 04:06:16;;;;;;;3.80;2.17;;;15.20;99.90;;;;;;5053600;28;20417;-70
2023/07/14 04:08:43;;;;;;;2.30;1.67;;;15.30;99.90;;;;;;5053990;28;20336;-69
2023/07/14 04:11:11;;;;;;;1.73;1.60;;;15.30;99.90;;;;;;5054212;28;20174;-69
2023/07/14 04:13:36;;;;;;;1.87;1.70;;;15.30;99.90;;;;;;5053732;28;20410;-69
2023/07/14 04:16:07;;;;;;;2.20;2.00;;;15.30;99.90;;;;;;5053607;28;20411;-69
2023/07/14 04:18:36;;;;;;;2.20;2.00;;;15.30;99.90;;;;;;5053753;28;20702;-69
2023/07/14 04:21:07;;;;;;;2.43;1.70;;;15.30;99.90;;;;;;5053863;28;20498;-71
2023/07/14 04:23:33;;;;;;;4.60;2.13;;;15.40;99.90;;;;;;5053758;28;20408;-69
2023/07/14 04:26:00;;;;;;;2.27;1.90;;;15.40;99.90;;;;;;5053440;28;20413;-69
2023/07/14 04:28:26;;;;;;;2.40;2.20;;;15.30;99.90;;;;;;5053460;28;20435;-70
2023/07/14 04:31:00;;;;;;;2.50;2.27;;;15.30;99.90;;;;;;5052164;28;20781;-70
2023/07/14 04:33:26;;;;;;;2.17;1.97;;;15.40;99.90;;;;;;5053530;28;20170;-69
2023/07/14 04:35:53;;;;;;;3.27;1.83;;;15.50;99.90;;;;;;5053249;28;20413;-70
2023/07/14 04:38:19;;;;;;;4.80;2.50;;;15.50;99.90;;;;;;5053270;28;20252;-70
2023/07/14 04:40:45;;;;;;;4.90;2.80;;;15.50;99.90;;;;;;5053116;28;20428;-71
2023/07/14 04:43:12;;;;;;;1.90;1.80;;;15.60;99.90;;;;;;5053344;28;20471;-70
2023/07/14 04:45:39;;;;;;;2.37;2.10;;;15.60;99.90;;;;;;5052975;28;21000;-70
2023/07/14 04:48:09;;;;;;;5.03;2.27;;;15.60;99.90;;;;;;5053154;28;20437;-70
2023/07/14 04:50:36;;;;;;;4.30;2.00;;;15.60;99.90;;;;;;5053033;28;20416;-70
2023/07/14 04:53:05;;;;;;;2.47;2.23;;;15.60;99.90;;;;;;5053187;28;20535;-71
2023/07/14 04:55:37;;;;;;;2.23;2.00;;;15.60;99.90;;;;;;5052728;28;20933;-70
2023/07/14 04:58:04;;;;;;;2.60;2.10;;;15.80;99.90;;;;;;5052943;28;20489;-70
2023/07/14 05:00:31;;;;;;;4.87;2.07;;;15.90;99.90;;;;;;5052910;28;20416;-70
2023/07/14 05:02:57;;;;;;;5.50;2.30;;;16.00;99.90;;;;;;5052968;28;20405;-70
2023/07/14 05:05:24;;;;;;;3.23;2.17;;;16.10;99.90;;;;;;5052612;28;20466;-70
2023/07/14 05:07:50;;;;;;;3.87;2.37;;;16.20;99.90;;;;;;5052572;28;20445;-70
2023/07/14 05:10:17;;;;;;;2.50;2.00;;;16.30;99.90;;;;;;5052498;28;20397;-70
2023/07/14 05:12:42;;;;;;;2.40;1.80;;;16.40;99.90;;;;;;5052701;28;20405;-70
2023/07/14 05:15:10;;;;;;;2.80;2.17;;;16.40;99.90;;;;;;5052427;28;20406;-70
2023/07/14 05:17:43;;;;;;;2.43;1.80;;;16.60;99.90;;;;;;5052526;28;20536;-70
2023/07/14 05:20:10;;;;;;;3.73;2.63;;;16.60;99.90;;;;;;5052648;28;20405;-70
2023/07/14 05:22:37;;;;;;;4.10;2.73;;;16.80;99.90;;;;;;5052609;28;20409;-70
2023/07/14 05:25:03;;;;;;;2.53;2.00;;;16.90;99.90;;;;;;5052351;28;20409;-70
2023/07/14 05:27:29;;;;;;;2.83;2.10;;;17.00;99.90;;;;;;5052468;28;20471;-71
2023/07/14 05:29:55;;;;;;;2.93;2.20;;;17.10;99.90;;;;;;5052466;28;20413;-71
2023/07/14 05:32:24;;;;;;;3.50;1.80;;;17.20;99.90;;;;;;5052295;28;20408;-71
2023/07/14 05:34:50;;;;;;;3.20;2.10;;;17.50;99.90;;;;;;5052372;28;20175;-69
2023/07/14 05:37:18;;;;;;;5.17;2.47;;;17.70;99.90;;;;;;5052034;28;20449;-70
2023/07/14 05:39:43;;;;;;;2.40;1.80;;;17.90;99.90;;;;;;5052255;28;20417;-69
2023/07/14 05:42:10;;;;;;;2.70;1.87;;;18.20;99.90;;;;;;5051922;28;20964;-70
2023/07/14 05:44:36;;;;;;;2.80;2.37;;;18.30;99.90;;;;;;5052094;28;20408;-69
2023/07/14 05:47:01;;;;;;;2.70;1.67;;;18.40;99.90;;;;;;5050624;28;20907;-69
2023/07/14 05:49:27;;;;;;;2.07;1.80;;;18.60;99.90;;;;;;5052027;28;20198;-69
2023/07/14 05:51:53;;;;;;;2.23;2.03;;;18.90;99.90;;;;;;5052237;28;20198;-70
2023/07/14 05:54:20;;;;;;;5.80;2.30;;;19.10;99.90;;;;;;5052213;28;20260;-70
2023/07/14 05:56:46;;;;;;;3.10;2.00;;;19.30;99.90;;;;;;5051786;28;20175;-70
2023/07/14 05:59:12;;;;;;;2.13;1.93;;;19.30;99.90;;;;;;5051994;28;20479;-70
2023/07/14 06:01:38;;;;;;;3.30;2.00;;;19.40;99.90;;;;;;5052192;28;20413;-70
2023/07/14 06:04:05;;;;;;;3.00;2.20;;;19.60;99.90;;;;;;5052091;28;20444;-70
2023/07/14 06:06:31;;;;;;;3.10;2.43;;;19.70;99.90;;;;;;5051596;28;20178;-70
2023/07/14 06:08:57;;;;;;;7.07;3.23;;;19.90;99.90;;;;;;5051930;28;21016;-70
2023/07/14 06:11:23;;;;;;;2.40;2.00;;;20.30;99.90;;;;;;5052003;28;20493;-70
2023/07/14 06:13:49;;;;;;;2.40;1.87;;;20.90;99.90;;;;;;5051819;28;20406;-69
2023/07/14 06:16:14;;;;;;;2.43;2.23;;;21.60;99.90;;;;;;5051643;28;20414;-70
2023/07/14 06:18:40;;;;;;;2.03;1.83;;;22.40;99.90;;;;;;5051708;28;20570;-70
2023/07/14 06:21:07;;;;;;;4.07;2.67;;;23.00;99.90;;;;;;5051865;28;20163;-70
2023/07/14 06:23:33;;;;;;;2.60;1.90;;;23.50;99.90;;;;;;5051894;28;20509;-73
2023/07/14 06:25:59;;;;;;;3.67;2.20;;;23.80;99.90;;;;;;5051531;28;20404;-70
2023/07/14 06:28:25;;;;;;;3.23;1.70;;;24.10;99.90;;;;;;5051652;28;20183;-70
2023/07/14 06:30:58;;;;;;;3.87;2.13;;;25.00;99.90;;;;;;5051781;28;20167;-70
2023/07/14 06:33:24;;;;;;;2.43;1.90;;;25.40;98.20;;;;;;5051751;28;20905;-70
2023/07/14 06:35:51;;;;;;;2.07;1.87;;;25.70;95.10;;;;;;5051405;28;20416;-71
2023/07/14 06:38:16;;;;;;;2.70;1.80;;;25.60;91.50;;;;;;5051536;28;20452;-71
2023/07/14 06:40:42;;;;;;;1.87;1.70;;;25.20;90.70;;;;;;5051632;28;20401;-70
2023/07/14 06:43:09;;;;;;;4.63;2.00;;;25.30;90.70;;;;;;5051616;28;20174;-70
2023/07/14 06:45:35;;;;;;;2.00;1.53;;;25.70;91.20;;;;;;5051407;28;20159;-70
2023/07/14 06:48:02;;;;;;;3.37;1.90;;;26.20;89.10;;;;;;5051546;28;20462;-70
2023/07/14 06:50:27;;;;;;;5.80;1.90;;;26.40;85.30;;;;;;5051535;28;20444;-70
2023/07/14 06:52:53;;;;;;;2.43;1.80;;;26.70;81.00;;;;;;5051561;28;20417;-69
2023/07/14 06:55:19;;;;;;;2.53;1.63;;;26.50;79.30;;;;;;5052973;28;20175;-70
2023/07/14 06:57:45;;;;;;;5.03;1.93;;;26.60;78.10;;;;;;5055164;28;20203;-70
2023/07/14 07:00:12;;;;;;;2.20;1.80;;;26.50;75.60;;;;;;5055323;28;20496;-70
2023/07/14 07:02:38;;;;;;;2.40;1.47;;;26.40;73.50;;;;;;5055259;28;20551;-71
2023/07/14 07:05:06;;;;;;;2.50;2.30;;;26.50;75.90;;;;;;5054484;28;20415;-70
2023/07/14 07:07:33;;;;;;;3.83;2.07;;;26.70;76.00;;;;;;5054902;28;20476;-71
2023/07/14 07:09:58;;;;;;;3.60;2.07;;;27.30;76.50;;;;;;5055057;28;20409;-69
2023/07/14 07:12:24;;;;;;;2.00;1.87;;;27.80;71.50;;;;;;5055035;28;20829;-70
2023/07/14 07:14:50;;;;;;;2.53;1.53;;;28.80;67.90;;;;;;5054974;28;20267;-70
2023/07/14 07:17:16;;;;;;;2.80;2.37;;;29.60;64.30;;;;;;5054627;28;20195;-70
2023/07/14 07:19:41;;;;;;;2.00;1.70;;;30.90;60.90;;;;;;5054951;28;20425;-71
2023/07/14 07:22:07;;;;;;;3.53;2.00;;;31.70;56.60;;;;;;5054898;28;20171;-71
2023/07/14 07:24:33;;;;;;;4.43;2.37;;;33.20;55.60;;;;;;5054790;28;20167;-71
2023/07/14 07:27:00;;;;;;;3.40;2.37;;;33.20;48.60;;;;;;5054494;28;20402;-71
2023/07/14 07:29:25;;;;;;;2.03;1.83;;;33.20;46.70;;;;;;5054651;28;20187;-71
2023/07/14 07:31:51;;;;;;;4.03;1.70;;;33.50;47.90;;;;;;5054691;28;20409;-71
2023/07/14 07:34:16;;;;;;;2.93;2.10;;;34.10;47.90;;;;;;5054635;28;20175;-71
2023/07/14 07:36:42;;;;;;;2.87;2.67;;;34.00;44.60;;;;;;5054475;28;20537;-71
2023/07/14 07:39:08;;;;;;;3.43;2.30;;;33.80;44.00;;;;;;5054500;28;20213;-71
2023/07/14 07:41:33;;;;;;;4.63;2.30;;;33.60;44.50;;;;;;5054545;28;20242;-71
2023/07/14 07:44:01;;;;;;;3.83;1.93;;;33.60;44.20;;;;;;5054354;28;20167;-71
2023/07/14 07:46:28;;;;;;;2.67;1.83;;;34.00;45.10;;;;;;5054222;28;20199;-71
2023/07/14 07:48:54;;;;;;;4.33;2.70;;;34.20;43.80;;;;;;5054319;28;20456;-71
2023/07/14 07:51:19;;;;;;;3.47;2.20;;;35.30;43.60;;;;;;5054371;28;20463;-71
2023/07/14 07:53:47;;;;;;;5.80;2.70;;;36.60;42.90;;;;;;5053999;28;20441;-70
2023/07/14 07:56:12;;;;;;;2.50;2.30;;;37.00;39.60;;;;;;5054066;28;20167;-70
2023/07/14 07:58:38;;;;;;;2.53;2.33;;;37.30;38.00;;;;;;5053993;28;20547;-70
2023/07/14 08:01:05;;;;;;;2.23;1.83;;;37.50;38.10;;;;;;5054194;28;20209;-70
2023/07/14 08:03:32;;;;;;;3.47;2.00;;;37.60;38.20;;;;;;5054054;28;20484;-69
2023/07/14 08:05:59;;;;;;;3.70;2.50;;;37.10;37.40;;;;;;5053363;28;20933;-70
2023/07/14 08:08:25;;;;;;;3.07;1.80;;;35.70;36.00;;;;;;5053996;28;20441;-70
2023/07/14 08:10:50;;;;;;;4.33;2.63;;;35.60;38.10;;;;;;5053964;28;20402;-70
2023/07/14 08:13:16;;;;;;;3.03;2.70;;;35.00;37.50;;;;;;5053977;28;20174;-72
2023/07/14 08:15:41;;;;;;;2.70;2.17;;;35.10;38.00;;;;;;5053745;28;20520;-69
2023/07/14 08:18:07;;;;;;;2.20;2.00;;;34.40;37.70;;;;;;5053735;28;20703;-69
2023/07/14 08:20:40;;;;;;;2.33;1.60;;;34.30;37.80;;;;;;5053866;28;20216;-68
2023/07/14 08:23:09;;;;;;;1.63;1.53;;;34.50;38.00;;;;;;5053667;28;20171;-68
2023/07/14 08:25:35;;;;;;;2.20;2.00;;;34.90;38.10;;;;;;5053393;28;20405;-69
2023/07/14 08:28:00;;;;;;;3.57;2.10;;;35.10;37.70;;;;;;5052488;28;20438;-68
2023/07/14 08:30:26;;;;;;;2.10;1.77;;;34.60;38.20;;;;;;5053565;28;20178;-69
2023/07/14 08:32:51;;;;;;;5.00;2.27;;;33.70;38.00;;;;;;5053283;28;20194;-69
2023/07/14 08:35:19;;;;;;;2.47;2.20;;;34.00;39.40;;;;;;5053239;28;20589;-69
2023/07/14 08:37:45;;;;;;;2.10;1.90;;;35.30;38.40;;;;;;5053339;28;20244;-70
2023/07/14 08:40:26;;;;;;;2.40;2.20;;;37.50;36.40;;;;;;5053362;28;20476;-68
2023/07/14 08:43:11;;;;;;;4.40;2.30;;;38.20;35.00;;;;;;5053380;28;20379;-69
2023/07/14 08:45:51;;;;;;;3.97;2.17;;;39.40;33.60;;;;;;5052853;28;20475;-70
2023/07/14 08:48:17;;;;;;;2.30;2.10;;;39.90;31.30;;;;;;5053227;28;20437;-69
2023/07/14 08:50:46;;;;;;;2.53;2.30;;;41.00;30.90;;;;;;5053155;28;20438;-68
2023/07/14 08:53:19;;;;;;;2.23;2.00;;;41.20;28.90;;;;;;5053282;28;20696;-70
2023/07/14 08:55:45;;;;;;;2.60;2.40;;;40.30;28.80;;;;;;5051914;28;20422;-69
2023/07/14 08:58:18;;;;;;;2.73;1.83;;;40.20;28.90;;;;;;5053194;28;20878;-70
2023/07/14 09:01:02;;;;;;;2.97;2.00;;;40.00;29.40;;;;;;5053018;28;20867;-69
2023/07/14 09:03:43;;;;;;;2.60;2.40;;;40.20;29.20;;;;;;5053174;28;20415;-69
2023/07/14 09:06:17;;;;;;;1.87;1.60;;;40.10;28.70;;;;;;5052981;28;20925;-69
2023/07/14 09:08:44;;;;;;;6.07;3.80;;;39.80;28.50;;;;;;5053014;28;20897;-69
2023/07/14 09:11:42;;;;;;;2.60;2.43;;;40.30;29.60;;;;;;5052944;28;20416;-69
2023/07/14 09:14:15;;;;;;;2.13;1.73;;;40.80;28.20;;;;;;5052724;28;20429;-69
2023/07/14 09:16:54;;;;;;;2.20;2.00;;;41.70;28.60;;;;;;5052317;28;20451;-68
2023/07/14 09:19:41;;;;;;;2.30;2.10;;;41.60;27.30;;;;;;5052163;28;20572;-68
2023/07/14 09:22:34;;;;;;;3.83;2.23;;;41.40;27.30;;;;;;5052603;28;20397;-69
2023/07/14 09:25:08;;;;;;;4.00;1.93;;;41.30;27.10;;;;;;5052295;28;20757;-68
2023/07/14 09:27:34;;;;;;;2.27;2.07;;;41.10;27.20;;;;;;5052457;28;20413;-69
2023/07/14 09:30:01;;;;;;;2.30;1.70;;;41.40;27.50;;;;;;5051347;28;20384;-68
2023/07/14 09:32:42;;;;;;;2.70;2.10;;;41.30;27.00;;;;;;5052480;28;20398;-69
2023/07/14 09:35:09;;;;;;;2.80;2.07;;;40.80;27.10;;;;;;5052194;28;20371;-69
2023/07/14 09:37:47;;;;;;;2.60;2.00;;;41.20;27.20;;;;;;5052319;28;20435;-68
2023/07/14 09:40:19;;;;;;;4.93;2.27;;;40.30;26.90;;;;;;5052260;28;20420;-68
2023/07/14 09:42:51;;;;;;;2.20;2.00;;;39.10;27.90;;;;;;5052346;28;20388;-69
2023/07/14 09:45:29;;;;;;;2.27;2.10;;;38.60;28.80;;;;;;5052190;28;20401;-68
2023/07/14 09:48:02;;;;;;;2.60;1.97;;;38.60;28.50;;;;;;5052405;28;20400;-69
2023/07/14 09:50:31;;;;;;;3.07;2.10;;;39.00;28.60;;;;;;5052201;28;20402;-67
2023/07/14 09:53:02;;;;;;;2.60;2.07;;;39.70;28.10;;;;;;5052373;28;20941;-70
2023/07/14 09:55:30;;;;;;;1.77;1.67;;;40.50;27.20;;;;;;5052014;28;20397;-69
2023/07/14 09:57:56;;;;;;;3.77;2.30;;;41.30;26.80;;;;;;5051924;28;20993;-69
2023/07/14 10:00:27;;;;;;;2.33;1.83;;;42.10;26.50;;;;;;5052107;28;20404;-69
2023/07/14 10:03:06;;;;;;;3.43;2.40;;;42.40;26.20;;;;;;5052058;28;20929;-67
2023/07/14 10:05:36;;;;;;;2.63;2.43;;;42.80;25.90;;;;;;5051856;28;20718;-68
2023/07/14 10:08:15;;;;;;;4.43;2.50;;;42.60;25.90;;;;;;5051867;28;20434;-70
2023/07/14 10:10:43;;;;;;;2.17;2.00;;;41.50;26.20;;;;;;5052022;28;20898;-70
2023/07/14 10:13:35;;;;;;;3.20;2.00;;;41.50;26.70;;;;;;5051951;28;20419;-70
2023/07/14 10:16:14;;;;;;;3.03;2.20;;;41.50;25.70;;;;;;5050373;28;20417;-71
2023/07/14 10:19:00;;;;;;;2.30;1.77;;;42.80;26.80;;;;;;5051881;28;20978;-68
2023/07/14 10:21:31;;;;;;;3.60;2.63;;;42.90;24.70;;;;;;5051558;28;20408;-68
2023/07/14 10:24:15;;;;;;;2.70;2.50;;;42.60;24.90;;;;;;5051833;28;20396;-70
2023/07/14 10:26:50;;;;;;;3.00;2.47;;;42.20;25.50;;;;;;5051589;28;20916;-68
2023/07/14 10:29:19;;;;;;;2.53;2.20;;;42.00;24.90;;;;;;5053535;28;20515;-70
2023/07/14 10:31:54;;;;;;;2.20;2.03;;;41.50;25.10;;;;;;5055982;28;20397;-70
2023/07/14 10:34:38;;;;;;;2.97;2.67;;;41.70;25.10;;;;;;5055922;28;20410;-68
2023/07/14 10:37:14;;;;;;;2.17;1.97;;;41.40;24.60;;;;;;5055477;28;20409;-68
2023/07/14 10:39:48;;;;;;;2.07;1.97;;;41.40;24.00;;;;;;5055819;28;20401;-69
2023/07/14 10:42:20;;;;;;;2.23;2.03;;;42.00;24.90;;;;;;5055824;28;20368;-69
2023/07/14 10:44:46;;;;;;;2.30;2.10;;;41.80;24.20;;;;;;5055806;28;20467;-71
2023/07/14 10:47:22;;;;;;;3.30;2.10;;;41.30;24.10;;;;;;5055346;28;20376;-70
2023/07/14 10:50:12;;;;;;;2.50;2.30;;;40.50;24.10;;;;;;5055660;28;20397;-67
2023/07/14 10:52:42;;;;;;;2.90;2.10;;;39.90;24.50;;;;;;5055608;28;20383;-69
2023/07/14 10:55:16;;;;;;;2.77;2.30;;;40.60;25.30;;;;;;5055012;28;20428;-69
2023/07/14 10:57:51;;;;;;;2.10;2.00;;;42.20;25.30;;;;;;5055282;28;20427;-69
2023/07/14 11:00:32;;;;;;;2.30;2.10;;;42.60;23.40;;;;;;5055442;28;20450;-68
2023/07/14 11:03:17;;;;;;;3.10;2.30;;;42.80;23.40;;;;;;5055193;28;20380;-69
2023/07/14 11:05:52;;;;;;;2.20;2.10;;;43.10;22.80;;;;;;5055032;28;20376;-69
2023/07/14 11:08:18;;;;;;;2.77;2.00;;;41.90;23.00;;;;;;5055077;28;20802;-69
2023/07/14 11:11:15;;;;;;;2.33;2.20;;;43.20;24.80;;;;;;5055424;28;20384;-69
2023/07/14 11:14:04;;;;;;;2.60;1.90;;;45.90;23.60;;;;;;5055134;28;20193;-70
2023/07/14 11:16:38;;;;;;;3.23;2.77;;;48.10;23.30;;;;;;5054845;28;20462;-69
2023/07/14 11:19:08;;;;;;;2.50;2.30;;;49.20;20.50;;;;;;5054893;28;20466;-68
2023/07/14 11:21:54;;;;;;;2.87;2.67;;;49.00;20.80;;;;;;5055230;28;20425;-69
2023/07/14 11:25:00;;;;;;;3.93;2.80;;;50.30;20.80;;;;;;5054994;28;20918;-68
2023/07/14 11:28:01;;;;;;;3.27;2.97;;;51.20;19.50;;;;;;5053325;28;20437;-69
2023/07/14 11:30:40;;;;;;;3.30;3.10;;;50.90;18.90;;;;;;5050169;28;20448;-69
2023/07/14 11:33:26;;;;;;;3.63;2.67;;;51.50;20.00;;;;;;5054630;28;20447;-70
2023/07/14 11:35:55;;;;;;;4.37;4.07;;;52.40;19.70;;;;;;5054584;28;20447;-69
2023/07/14 11:39:04;;;;;;;2.80;2.60;;;53.90;19.00;;;;;;5054681;28;20798;-69
2023/07/14 11:41:31;;;;;;;3.03;2.83;;;54.50;18.30;;;;;;5053762;28;20399;-68
2023/07/14 11:44:00;;;;;;;3.30;3.00;;;54.70;18.20;;;;;;5054146;28;20405;-70
2023/07/14 11:46:26;;;;;;;3.90;3.60;;;53.80;17.40;;;;;;5054226;28;20394;-68
2023/07/14 11:48:52;;;;;;;2.80;2.60;;;52.80;17.00;;;;;;5053977;28;20504;-68
2023/07/14 11:51:20;;;;;;;3.17;2.97;;;52.20;17.40;;;;;;5054408;28;20485;-70
2023/07/14 11:54:05;;;;;;;3.30;3.00;;;50.30;17.10;;;;;;5054167;28;20662;-71
2023/07/14 11:56:38;;;;;;;5.47;2.47;;;48.40;17.10;;;;;;5054061;28;20380;-71
2023/07/14 11:59:18;;;;;;;4.20;2.43;;;47.30;18.10;;;;;;5054079;28;20435;-70
2023/07/14 12:01:47;;;;;;;3.07;2.87;;;46.70;18.90;;;;;;5054308;28;20393;-70
2023/07/14 12:04:36;;;;;;;2.90;2.70;;;46.10;18.70;;;;;;5054081;28;20459;-70
2023/07/14 12:07:16;;;;;;;2.90;2.60;;;45.00;19.20;;;;;;5050686;28;20412;-70
2023/07/14 12:10:01;;;;;;;2.53;2.33;;;45.10;19.70;;;;;;5054127;28;20388;-70
2023/07/14 12:12:30;;;;;;;2.90;2.70;;;45.10;20.00;;;;;;5054146;28;20470;-69
2023/07/14 12:14:56;;;;;;;3.30;2.97;;;45.10;19.40;;;;;;5053660;28;20390;-70
2023/07/14 12:17:37;;;;;;;3.20;2.63;;;44.80;19.50;;;;;;5053693;28;20420;-70
2023/07/14 12:20:25;;;;;;;5.90;2.40;;;43.30;19.70;;;;;;5053989;28;20162;-70
2023/07/14 12:23:13;;;;;;;3.00;2.37;;;41.60;20.80;;;;;;5054088;28;20912;-70
2023/07/14 12:25:43;;;;;;;5.33;2.30;;;39.90;21.70;;;;;;5051957;28;20859;-70
2023/07/14 12:28:19;;;;;;;7.90;2.40;;;39.10;22.10;;;;;;5053727;28;20951;-69
2023/07/14 12:30:49;;;;;;;4.13;2.90;;;38.60;22.60;;;;;;5053422;28;20429;-70
2023/07/14 12:33:19;;;;;;;2.63;2.30;;;38.60;23.20;;;;;;5053675;28;20433;-69
2023/07/14 12:35:45;;;;;;;4.37;2.30;;;38.40;23.40;;;;;;5068976;28;20736;-69
2023/07/14 12:38:15;;;;;;;3.50;2.40;;;37.70;23.00;;;;;;5073422;28;20514;-71
2023/07/14 12:40:42;;;;;;;3.53;2.20;;;37.20;23.40;;;;;;5071142;28;20445;-69
2023/07/14 12:43:24;;;;;;;3.03;2.53;;;36.60;24.00;;;;;;5053320;28;20757;-70
2023/07/14 12:45:50;;;;;;;3.10;2.90;;;36.40;23.70;;;;;;5053175;28;20519;-69
2023/07/14 12:48:15;;;;;;;2.90;2.60;;;36.20;24.20;;;;;;5052821;28;20994;-70
2023/07/14 12:50:43;;;;;;;2.60;2.30;;;35.90;24.30;;;;;;5053077;28;20171;-71
2023/07/14 12:53:15;;;;;;;3.63;2.63;;;35.50;24.60;;;;;;5053004;28;20197;-70
2023/07/14 12:55:42;;;;;;;3.87;2.20;;;35.00;25.20;;;;;;5052897;28;20409;-67
2023/07/14 12:58:22;;;;;;;4.43;2.20;;;34.70;25.20;;;;;;5051856;28;20460;-70
2023/07/14 13:00:56;;;;;;;3.90;2.50;;;34.50;25.90;;;;;;5053061;28;20439;-69
2023/07/14 13:03:22;;;;;;;3.33;2.07;;;34.20;26.00;;;;;;5053006;28;20404;-69